Time;durP1;ratioP1;P1;durP2;ratioP2;P2;SDS_P1;SDS_P2;PMS_P1;PMS_P2;Temp;Humidity;BMP_temperature;BMP_pressure;BME280_temperature;BME280_humidity;BME280_pressure;Samples;Min_cycle;Max_cycle;Signal;HPM_P1;HPM_P2
2022/03/08 00:02:07;;;;;;;;;38.50;34.00;;;;;;;;5069726;27;51290;-60
2022/03/08 00:04:32;;;;;;;;;38.50;35.75;;;;;;;;5052703;28;51368;-60
2022/03/08 00:06:57;;;;;;;;;33.25;32.00;;;;;;;;5067086;27;51121;-60
2022/03/08 00:09:23;;;;;;;;;41.50;37.50;;;;;;;;5071173;27;51180;-60
2022/03/08 00:11:48;;;;;;;;;40.00;33.75;;;;;;;;5070747;28;51339;-60
2022/03/08 00:14:13;;;;;;;;;38.00;34.00;;;;;;;;5070220;28;51030;-60
2022/03/08 00:16:39;;;;;;;;;34.50;33.00;;;;;;;;5071259;28;51139;-60
2022/03/08 00:19:05;;;;;;;;;25.50;23.75;;;;;;;;5071036;28;51115;-60
2022/03/08 00:21:30;;;;;;;;;38.00;33.75;;;;;;;;5072013;28;50932;-60
2022/03/08 00:23:56;;;;;;;;;34.00;33.50;;;;;;;;5070908;28;50906;-59
2022/03/08 00:26:21;;;;;;;;;37.25;34.00;;;;;;;;5069485;28;51897;-59
2022/03/08 00:28:47;;;;;;;;;34.50;29.75;;;;;;;;5070878;27;51884;-59
2022/03/08 00:31:12;;;;;;;;;26.00;21.00;;;;;;;;5072100;28;51267;-59
2022/03/08 00:33:37;;;;;;;;;39.75;33.50;;;;;;;;5069363;27;51321;-59
2022/03/08 00:36:03;;;;;;;;;35.25;32.75;;;;;;;;5071057;28;51056;-59
2022/03/08 00:38:28;;;;;;;;;35.00;33.75;;;;;;;;5069493;27;51264;-58
2022/03/08 00:40:53;;;;;;;;;40.25;34.25;;;;;;;;5070553;28;51189;-59
2022/03/08 00:43:18;;;;;;;;;36.00;34.25;;;;;;;;5071233;27;51345;-59
2022/03/08 00:45:44;;;;;;;;;22.75;20.50;;;;;;;;5070770;28;50991;-59
2022/03/08 00:48:09;;;;;;;;;28.25;23.75;;;;;;;;5071920;28;51204;-59
2022/03/08 00:50:36;;;;;;;;;31.75;30.75;;;;;;;;5076516;27;51106;-60
2022/03/08 00:53:01;;;;;;;;;39.75;33.75;;;;;;;;5071933;28;51483;-59
2022/03/08 00:55:28;;;;;;;;;35.75;31.50;;;;;;;;5072452;28;51076;-60
2022/03/08 00:57:53;;;;;;;;;33.25;30.00;;;;;;;;5057737;28;51056;-59
2022/03/08 01:00:19;;;;;;;;;45.00;37.25;;;;;;;;5076706;28;50928;-59
2022/03/08 01:02:45;;;;;;;;;35.50;32.50;;;;;;;;5075714;28;50972;-59
2022/03/08 01:05:11;;;;;;;;;28.50;27.25;;;;;;;;5072802;27;51391;-59
2022/03/08 01:07:36;;;;;;;;;35.25;30.00;;;;;;;;5073929;28;50898;-59
2022/03/08 01:10:02;;;;;;;;;42.50;36.50;;;;;;;;5074579;28;50942;-60
2022/03/08 01:12:27;;;;;;;;;32.75;28.75;;;;;;;;5075450;28;51301;-59
2022/03/08 01:14:53;;;;;;;;;39.25;36.75;;;;;;;;5070526;27;52251;-60
2022/03/08 01:17:18;;;;;;;;;37.75;36.00;;;;;;;;5075250;28;50857;-59
2022/03/08 01:19:43;;;;;;;;;34.50;33.75;;;;;;;;5075036;27;51072;-59
2022/03/08 01:22:10;;;;;;;;;37.25;35.25;;;;;;;;5074330;28;51052;-59
2022/03/08 01:24:35;;;;;;;;;37.75;33.50;;;;;;;;5071208;27;52094;-60
2022/03/08 01:27:00;;;;;;;;;34.25;30.75;;;;;;;;5074757;28;50980;-59
2022/03/08 01:29:25;;;;;;;;;36.75;31.00;;;;;;;;5075069;28;51055;-59
2022/03/08 01:31:51;;;;;;;;;29.75;25.75;;;;;;;;5075128;28;50919;-59
2022/03/08 01:34:16;;;;;;;;;21.50;18.25;;;;;;;;5073076;28;51089;-60
2022/03/08 01:36:41;;;;;;;;;43.25;35.50;;;;;;;;5074639;28;51179;-59
2022/03/08 01:39:07;;;;;;;;;32.25;27.00;;;;;;;;5069823;27;51122;-59
2022/03/08 01:41:32;;;;;;;;;32.00;32.00;;;;;;;;5070505;28;51176;-59
2022/03/08 01:43:57;;;;;;;;;36.75;33.00;;;;;;;;5071590;28;51938;-59
2022/03/08 01:46:23;;;;;;;;;35.50;34.75;;;;;;;;5070359;28;51011;-59
2022/03/08 01:48:48;;;;;;;;;38.25;35.25;;;;;;;;5074602;28;51238;-60
2022/03/08 01:51:13;;;;;;;;;34.00;32.75;;;;;;;;5070963;28;51179;-60
2022/03/08 01:53:40;;;;;;;;;30.00;28.00;;;;;;;;5072918;28;53701;-60
2022/03/08 01:56:06;;;;;;;;;32.50;23.75;;;;;;;;5072240;27;51114;-60
2022/03/08 01:58:31;;;;;;;;;34.75;31.75;;;;;;;;5074648;28;50970;-60
2022/03/08 02:00:57;;;;;;;;;40.00;35.25;;;;;;;;5072110;28;51320;-60
2022/03/08 02:03:22;;;;;;;;;37.75;33.75;;;;;;;;5072064;28;53428;-61
2022/03/08 02:05:47;;;;;;;;;42.25;39.25;;;;;;;;5073825;27;51185;-60
2022/03/08 02:08:13;;;;;;;;;35.25;32.50;;;;;;;;5074299;28;50902;-61
2022/03/08 02:10:38;;;;;;;;;39.25;33.75;;;;;;;;5072689;28;51398;-60
2022/03/08 02:13:04;;;;;;;;;38.75;35.00;;;;;;;;5070482;28;51765;-60
2022/03/08 02:15:29;;;;;;;;;32.00;30.00;;;;;;;;5071239;28;51039;-61
2022/03/08 02:17:58;;;;;;;;;31.50;28.50;;;;;;;;5073921;28;51180;-59
2022/03/08 02:20:25;;;;;;;;;40.75;37.00;;;;;;;;5071022;27;51471;-59
2022/03/08 02:22:50;;;;;;;;;41.75;37.25;;;;;;;;5073758;28;51726;-59
2022/03/08 02:25:16;;;;;;;;;34.25;33.50;;;;;;;;5060829;27;50879;-59
2022/03/08 02:27:42;;;;;;;;;36.75;33.50;;;;;;;;5080496;27;51156;-59
2022/03/08 02:30:08;;;;;;;;;38.00;36.75;;;;;;;;5072615;27;51246;-60
2022/03/08 02:32:34;;;;;;;;;36.25;32.50;;;;;;;;5073773;28;51825;-59
2022/03/08 02:35:06;;;;;;;;;32.75;31.00;;;;;;;;5061356;27;52610;-60
2022/03/08 02:37:42;;;;;;;;;38.00;36.50;;;;;;;;5065232;27;50995;-58
2022/03/08 02:40:08;;;;;;;;;34.00;32.25;;;;;;;;5069132;27;51308;-60
2022/03/08 02:42:34;;;;;;;;;41.75;35.50;;;;;;;;5073672;28;51328;-59
2022/03/08 02:44:59;;;;;;;;;42.25;34.75;;;;;;;;5071737;27;51000;-59
2022/03/08 02:47:24;;;;;;;;;36.50;32.25;;;;;;;;5074015;28;51089;-60
2022/03/08 02:49:49;;;;;;;;;34.25;28.75;;;;;;;;5071610;28;51178;-60
2022/03/08 02:52:15;;;;;;;;;40.75;35.00;;;;;;;;5073183;28;51940;-59
2022/03/08 02:54:40;;;;;;;;;38.00;34.50;;;;;;;;5073201;28;51183;-60
2022/03/08 02:57:05;;;;;;;;;42.50;38.00;;;;;;;;5071323;28;51189;-60
2022/03/08 02:59:30;;;;;;;;;38.50;32.50;;;;;;;;5071194;27;51124;-61
2022/03/08 03:01:55;;;;;;;;;26.00;22.75;;;;;;;;5073237;28;52213;-61
2022/03/08 03:04:21;;;;;;;;;42.00;36.75;;;;;;;;5071740;28;51163;-59
2022/03/08 03:06:46;;;;;;;;;39.50;36.25;;;;;;;;5072257;28;51021;-59
2022/03/08 03:09:11;;;;;;;;;25.00;24.00;;;;;;;;5070998;27;51289;-59
2022/03/08 03:11:37;;;;;;;;;40.00;35.75;;;;;;;;5072543;27;51047;-59
2022/03/08 03:14:02;;;;;;;;;29.00;27.75;;;;;;;;5071591;27;51001;-59
2022/03/08 03:16:27;;;;;;;;;39.25;38.25;;;;;;;;5070972;28;50917;-59
2022/03/08 03:18:53;;;;;;;;;35.00;31.75;;;;;;;;5073444;28;51135;-59
2022/03/08 03:21:18;;;;;;;;;33.00;32.50;;;;;;;;5060818;28;52925;-59
2022/03/08 03:23:43;;;;;;;;;33.75;29.25;;;;;;;;5071668;28;51103;-59
2022/03/08 03:26:08;;;;;;;;;39.00;35.00;;;;;;;;5072054;28;51233;-59
2022/03/08 03:28:33;;;;;;;;;35.00;33.50;;;;;;;;5073576;27;51250;-59
2022/03/08 03:30:59;;;;;;;;;40.75;34.75;;;;;;;;5072000;28;51947;-60
2022/03/08 03:33:24;;;;;;;;;33.50;30.25;;;;;;;;5071524;27;51313;-59
2022/03/08 03:35:49;;;;;;;;;37.25;33.25;;;;;;;;5062659;28;51095;-59
2022/03/08 03:38:14;;;;;;;;;38.75;36.00;;;;;;;;5071578;28;51103;-60
2022/03/08 03:40:40;;;;;;;;;36.25;32.75;;;;;;;;5069752;28;51862;-59
2022/03/08 03:43:05;;;;;;;;;38.25;35.00;;;;;;;;5061174;28;50957;-59
2022/03/08 03:45:30;;;;;;;;;32.00;26.25;;;;;;;;5070671;28;51135;-59
2022/03/08 03:47:55;;;;;;;;;34.75;33.25;;;;;;;;5073010;28;51234;-59
2022/03/08 03:50:20;;;;;;;;;32.75;31.50;;;;;;;;5067274;27;51702;-59
2022/03/08 03:52:46;;;;;;;;;38.50;34.50;;;;;;;;5071662;28;51106;-60
2022/03/08 03:55:13;;;;;;;;;27.50;25.00;;;;;;;;5073266;28;50832;-59
2022/03/08 03:57:38;;;;;;;;;35.50;33.75;;;;;;;;5074563;28;51152;-59
2022/03/08 04:00:05;;;;;;;;;39.75;37.00;;;;;;;;5073453;28;50950;-60
2022/03/08 04:02:30;;;;;;;;;37.00;34.75;;;;;;;;5072829;28;51197;-60
2022/03/08 04:04:55;;;;;;;;;34.75;31.25;;;;;;;;5070724;28;51216;-60
2022/03/08 04:07:21;;;;;;;;;33.25;30.25;;;;;;;;5071442;27;50971;-60
2022/03/08 04:09:46;;;;;;;;;34.00;33.75;;;;;;;;5071698;28;52230;-60
2022/03/08 04:12:11;;;;;;;;;35.25;31.25;;;;;;;;5070897;28;50966;-59
2022/03/08 04:14:36;;;;;;;;;38.00;31.50;;;;;;;;5071850;28;50973;-60
2022/03/08 04:17:02;;;;;;;;;40.25;39.25;;;;;;;;5070428;28;51329;-60
2022/03/08 04:19:27;;;;;;;;;37.75;31.00;;;;;;;;5067538;27;51958;-59
2022/03/08 04:21:53;;;;;;;;;36.75;35.50;;;;;;;;5072342;28;51026;-59
2022/03/08 04:24:18;;;;;;;;;28.00;25.75;;;;;;;;5070754;28;51087;-60
2022/03/08 04:26:43;;;;;;;;;42.25;37.75;;;;;;;;5070866;28;51722;-61
2022/03/08 04:29:09;;;;;;;;;39.50;35.00;;;;;;;;5075026;27;51031;-59
2022/03/08 04:31:34;;;;;;;;;34.75;33.00;;;;;;;;5075066;28;50987;-59
2022/03/08 04:33:59;;;;;;;;;32.75;30.00;;;;;;;;5075072;28;51020;-59
2022/03/08 04:36:24;;;;;;;;;35.75;33.50;;;;;;;;5075496;28;51385;-59
2022/03/08 04:38:49;;;;;;;;;35.50;27.75;;;;;;;;5074218;27;51878;-59
2022/03/08 04:41:15;;;;;;;;;35.25;34.25;;;;;;;;5070459;28;50930;-59
2022/03/08 04:43:40;;;;;;;;;33.50;24.25;;;;;;;;5076002;28;51108;-60
2022/03/08 04:46:05;;;;;;;;;41.25;34.50;;;;;;;;5075016;28;51339;-60
2022/03/08 04:48:30;;;;;;;;;31.75;30.00;;;;;;;;5075689;27;51874;-60
2022/03/08 04:50:55;;;;;;;;;38.00;36.25;;;;;;;;5073933;28;51091;-59
2022/03/08 04:53:21;;;;;;;;;38.00;35.00;;;;;;;;5073380;28;51138;-59
2022/03/08 04:55:46;;;;;;;;;22.25;20.00;;;;;;;;5074087;27;51239;-60
2022/03/08 04:58:11;;;;;;;;;34.25;33.25;;;;;;;;5075477;28;52132;-60
2022/03/08 05:00:36;;;;;;;;;28.25;27.50;;;;;;;;5074445;27;50917;-60
2022/03/08 05:03:01;;;;;;;;;38.75;38.00;;;;;;;;5074644;27;50925;-60
2022/03/08 05:05:29;;;;;;;;;34.50;28.25;;;;;;;;5075448;27;50889;-59
2022/03/08 05:07:54;;;;;;;;;22.00;20.00;;;;;;;;5074820;28;52954;-60
2022/03/08 05:10:20;;;;;;;;;32.50;30.75;;;;;;;;5069990;28;50914;-59
2022/03/08 05:12:45;;;;;;;;;30.25;26.50;;;;;;;;5073578;27;51250;-59
2022/03/08 05:15:10;;;;;;;;;41.25;35.50;;;;;;;;5074230;28;51056;-60
2022/03/08 05:17:36;;;;;;;;;42.75;37.75;;;;;;;;5074703;28;50995;-60
2022/03/08 05:20:02;;;;;;;;;38.25;32.75;;;;;;;;5072719;28;51113;-60
2022/03/08 05:22:27;;;;;;;;;34.00;28.50;;;;;;;;5056877;28;51213;-60
2022/03/08 05:24:53;;;;;;;;;38.75;36.25;;;;;;;;5076053;28;51356;-60
2022/03/08 05:27:18;;;;;;;;;41.25;37.25;;;;;;;;5074516;28;53250;-61
2022/03/08 05:29:43;;;;;;;;;40.50;36.25;;;;;;;;5071026;27;51100;-60
2022/03/08 05:32:09;;;;;;;;;43.25;38.00;;;;;;;;5074848;28;51774;-60
2022/03/08 05:34:34;;;;;;;;;43.00;39.50;;;;;;;;5074993;28;50949;-61
2022/03/08 05:36:59;;;;;;;;;36.50;31.00;;;;;;;;5073652;28;53999;-60
2022/03/08 05:39:24;;;;;;;;;37.25;33.50;;;;;;;;5068783;28;51076;-60
2022/03/08 05:41:50;;;;;;;;;34.00;32.50;;;;;;;;5072371;28;50930;-60
2022/03/08 05:44:15;;;;;;;;;30.50;30.50;;;;;;;;5073475;28;51522;-59
2022/03/08 05:46:40;;;;;;;;;41.75;36.00;;;;;;;;5071332;27;51878;-59
2022/03/08 05:49:06;;;;;;;;;17.75;11.75;;;;;;;;5073246;27;51059;-60
2022/03/08 05:51:31;;;;;;;;;40.75;35.50;;;;;;;;5073596;28;51091;-60
2022/03/08 05:53:56;;;;;;;;;37.00;31.25;;;;;;;;5065954;27;50890;-60
2022/03/08 05:56:22;;;;;;;;;43.25;38.75;;;;;;;;5074163;27;50994;-60
2022/03/08 05:58:47;;;;;;;;;26.00;20.50;;;;;;;;5073931;28;50920;-60
2022/03/08 06:01:12;;;;;;;;;48.75;38.00;;;;;;;;5071834;27;51386;-60
2022/03/08 06:03:37;;;;;;;;;14.75;10.00;;;;;;;;5073320;28;51295;-59
2022/03/08 06:06:03;;;;;;;;;32.50;27.25;;;;;;;;5070076;28;51911;-60
2022/03/08 06:08:28;;;;;;;;;37.50;34.25;;;;;;;;5074069;27;50868;-60
2022/03/08 06:10:53;;;;;;;;;34.00;30.00;;;;;;;;5074010;28;51072;-60
2022/03/08 06:13:19;;;;;;;;;44.50;39.00;;;;;;;;5074085;28;51023;-60
2022/03/08 06:15:44;;;;;;;;;41.25;37.50;;;;;;;;5073693;28;52039;-60
2022/03/08 06:18:09;;;;;;;;;40.50;35.75;;;;;;;;5073981;28;50949;-60
2022/03/08 06:20:34;;;;;;;;;44.75;36.00;;;;;;;;5069081;27;51048;-59
2022/03/08 06:23:00;;;;;;;;;50.50;41.50;;;;;;;;5073961;28;50831;-59
2022/03/08 06:25:25;;;;;;;;;43.75;35.00;;;;;;;;5073374;27;52176;-59
2022/03/08 06:27:50;;;;;;;;;39.75;38.25;;;;;;;;5073858;28;51083;-60
2022/03/08 06:30:15;;;;;;;;;40.75;37.00;;;;;;;;5070900;28;50977;-59
2022/03/08 06:32:41;;;;;;;;;56.50;44.25;;;;;;;;5069395;28;51195;-59
2022/03/08 06:35:06;;;;;;;;;38.00;35.00;;;;;;;;5071115;27;51122;-59
2022/03/08 06:37:32;;;;;;;;;41.00;33.25;;;;;;;;5069017;27;52921;-59
2022/03/08 06:39:57;;;;;;;;;30.25;27.00;;;;;;;;5071401;27;51141;-61
2022/03/08 06:42:22;;;;;;;;;29.75;28.50;;;;;;;;5073181;27;50905;-60
2022/03/08 06:44:48;;;;;;;;;39.00;32.25;;;;;;;;5073004;27;51128;-60
2022/03/08 06:47:13;;;;;;;;;43.50;41.75;;;;;;;;5072071;27;51093;-60
2022/03/08 06:49:40;;;;;;;;;37.75;33.00;;;;;;;;5075959;27;51791;-59
2022/03/08 06:52:07;;;;;;;;;28.75;26.00;;;;;;;;5073801;27;51216;-60
2022/03/08 06:54:32;;;;;;;;;45.50;41.75;;;;;;;;5071858;28;53271;-60
2022/03/08 06:56:57;;;;;;;;;46.75;40.00;;;;;;;;5072816;28;50953;-61
2022/03/08 06:59:23;;;;;;;;;43.00;37.25;;;;;;;;5073516;28;50894;-60
2022/03/08 07:01:48;;;;;;;;;41.75;37.75;;;;;;;;5073612;27;51336;-60
2022/03/08 07:04:14;;;;;;;;;23.00;18.00;;;;;;;;5080853;27;50950;-59
2022/03/08 07:06:39;;;;;;;;;42.50;38.00;;;;;;;;5071707;28;51070;-59
2022/03/08 07:09:04;;;;;;;;;40.00;35.75;;;;;;;;5070989;27;51332;-59
2022/03/08 07:11:31;;;;;;;;;41.25;38.75;;;;;;;;5064856;27;51167;-61
2022/03/08 07:13:56;;;;;;;;;48.50;41.50;;;;;;;;5064536;28;52009;-60
2022/03/08 07:16:21;;;;;;;;;41.75;37.75;;;;;;;;5073376;27;50987;-60
2022/03/08 07:18:49;;;;;;;;;44.00;38.00;;;;;;;;5050571;28;50988;-59
2022/03/08 07:21:14;;;;;;;;;47.75;42.25;;;;;;;;5065975;28;51111;-59
2022/03/08 07:23:39;;;;;;;;;46.50;42.75;;;;;;;;5071982;28;51967;-60
2022/03/08 07:26:05;;;;;;;;;45.50;40.00;;;;;;;;5071113;28;50936;-60
2022/03/08 07:28:31;;;;;;;;;38.00;35.25;;;;;;;;5069474;27;51099;-60
2022/03/08 07:30:56;;;;;;;;;47.75;40.25;;;;;;;;5076963;27;51145;-60
2022/03/08 07:33:21;;;;;;;;;47.50;42.00;;;;;;;;5066669;27;51135;-61
2022/03/08 07:35:46;;;;;;;;;37.75;32.25;;;;;;;;5068919;27;51060;-59
2022/03/08 07:38:11;;;;;;;;;39.00;35.00;;;;;;;;5071605;28;51445;-60
2022/03/08 07:40:37;;;;;;;;;49.50;41.75;;;;;;;;5067284;27;51804;-59
2022/03/08 07:43:02;;;;;;;;;55.00;44.00;;;;;;;;5071974;27;52011;-59
2022/03/08 07:45:28;;;;;;;;;50.25;42.75;;;;;;;;5069251;27;51213;-60
2022/03/08 07:47:53;;;;;;;;;41.50;37.50;;;;;;;;5071257;27;51371;-59
2022/03/08 07:50:19;;;;;;;;;50.00;41.25;;;;;;;;5070184;28;51280;-60
2022/03/08 07:52:44;;;;;;;;;54.25;42.25;;;;;;;;5076208;27;52333;-60
2022/03/08 07:55:09;;;;;;;;;45.00;39.25;;;;;;;;5070737;27;51427;-60
2022/03/08 07:57:35;;;;;;;;;42.75;37.50;;;;;;;;5078083;27;51221;-60
2022/03/08 08:00:00;;;;;;;;;44.50;38.50;;;;;;;;5060609;27;51244;-60
2022/03/08 08:02:26;;;;;;;;;49.50;40.50;;;;;;;;5072200;27;52630;-59
2022/03/08 08:04:52;;;;;;;;;49.00;40.75;;;;;;;;5074926;28;51026;-59
2022/03/08 08:07:17;;;;;;;;;48.25;40.00;;;;;;;;5074789;27;51143;-60
2022/03/08 08:09:43;;;;;;;;;44.00;39.00;;;;;;;;5077273;27;51088;-60
2022/03/08 08:12:08;;;;;;;;;50.50;42.50;;;;;;;;5074685;28;51114;-60
2022/03/08 08:14:33;;;;;;;;;47.25;39.00;;;;;;;;5075130;27;51078;-59
2022/03/08 08:16:58;;;;;;;;;51.25;43.50;;;;;;;;5073711;27;50936;-59
2022/03/08 08:19:24;;;;;;;;;51.50;42.25;;;;;;;;5074092;27;51073;-60
2022/03/08 08:21:49;;;;;;;;;47.50;38.25;;;;;;;;5075361;28;51034;-61
2022/03/08 08:24:14;;;;;;;;;49.00;41.00;;;;;;;;5073919;27;51220;-61
2022/03/08 08:26:40;;;;;;;;;50.50;41.50;;;;;;;;5075084;27;51080;-61
2022/03/08 08:29:05;;;;;;;;;52.75;43.50;;;;;;;;5074809;27;52647;-60
2022/03/08 08:31:32;;;;;;;;;49.75;41.25;;;;;;;;5074411;28;51981;-61
2022/03/08 08:33:57;;;;;;;;;48.25;41.25;;;;;;;;5073543;27;50937;-60
2022/03/08 08:36:22;;;;;;;;;47.50;40.00;;;;;;;;5076327;27;51106;-61
2022/03/08 08:38:47;;;;;;;;;49.25;41.00;;;;;;;;5080991;27;51116;-61
2022/03/08 08:41:13;;;;;;;;;49.25;40.25;;;;;;;;5074306;27;51270;-61
2022/03/08 08:43:38;;;;;;;;;51.75;43.00;;;;;;;;5072778;27;50878;-61
2022/03/08 08:46:04;;;;;;;;;51.25;41.50;;;;;;;;5069944;28;51099;-61
2022/03/08 08:48:29;;;;;;;;;51.75;42.25;;;;;;;;5073667;27;51432;-61
2022/03/08 08:50:54;;;;;;;;;49.00;41.25;;;;;;;;5069967;28;53128;-61
2022/03/08 08:53:20;;;;;;;;;51.50;41.00;;;;;;;;5072708;27;51177;-61
2022/03/08 08:55:45;;;;;;;;;50.50;42.00;;;;;;;;5072182;27;51889;-60
2022/03/08 08:58:10;;;;;;;;;54.50;44.75;;;;;;;;5074447;27;51328;-61
2022/03/08 09:00:36;;;;;;;;;48.50;40.00;;;;;;;;5061968;27;51139;-62
2022/03/08 09:03:02;;;;;;;;;46.75;39.00;;;;;;;;5073688;27;51134;-61
2022/03/08 09:05:27;;;;;;;;;49.75;40.75;;;;;;;;5073059;27;51028;-61
2022/03/08 09:07:52;;;;;;;;;51.00;42.50;;;;;;;;5075753;27;51077;-60
2022/03/08 09:10:19;;;;;;;;;51.50;43.50;;;;;;;;5070767;27;51181;-61
2022/03/08 09:12:48;;;;;;;;;49.00;40.00;;;;;;;;5072377;28;51061;-62
2022/03/08 09:15:13;;;;;;;;;49.00;41.75;;;;;;;;5074418;27;50997;-62
2022/03/08 09:17:39;;;;;;;;;50.50;42.00;;;;;;;;5074676;28;50835;-62
2022/03/08 09:20:05;;;;;;;;;44.75;39.00;;;;;;;;5074073;28;51920;-62
2022/03/08 09:22:30;;;;;;;;;52.75;43.00;;;;;;;;5074575;28;51354;-62
2022/03/08 09:24:56;;;;;;;;;50.00;42.75;;;;;;;;5073166;28;51693;-62
2022/03/08 09:27:21;;;;;;;;;50.00;41.50;;;;;;;;5068795;28;51034;-61
2022/03/08 09:29:46;;;;;;;;;48.00;40.50;;;;;;;;5074567;28;51339;-62
2022/03/08 09:32:12;;;;;;;;;46.50;39.75;;;;;;;;5074350;28;51147;-62
2022/03/08 09:34:39;;;;;;;;;49.00;41.25;;;;;;;;5072962;28;51254;-61
2022/03/08 09:37:05;;;;;;;;;53.25;44.00;;;;;;;;5073383;28;51233;-61
2022/03/08 09:39:30;;;;;;;;;56.00;45.75;;;;;;;;5072233;27;52501;-62
2022/03/08 09:41:56;;;;;;;;;47.50;40.25;;;;;;;;5073387;28;50936;-61
2022/03/08 09:44:21;;;;;;;;;51.25;43.25;;;;;;;;5074193;28;51024;-61
2022/03/08 09:46:46;;;;;;;;;54.50;45.25;;;;;;;;5074127;28;51003;-62
2022/03/08 09:49:11;;;;;;;;;51.75;42.50;;;;;;;;5072502;28;51880;-62
2022/03/08 09:51:37;;;;;;;;;53.50;43.75;;;;;;;;5074650;28;50918;-62
2022/03/08 09:54:04;;;;;;;;;53.00;45.00;;;;;;;;5075796;27;50929;-62
2022/03/08 09:56:29;;;;;;;;;47.00;41.25;;;;;;;;5074912;27;51046;-61
2022/03/08 09:58:54;;;;;;;;;51.25;42.75;;;;;;;;5072815;28;53510;-61
2022/03/08 10:01:20;;;;;;;;;52.75;42.00;;;;;;;;5073446;28;50878;-62
2022/03/08 10:03:48;;;;;;;;;54.00;43.00;;;;;;;;5074239;28;50908;-62
2022/03/08 10:06:14;;;;;;;;;49.50;40.50;;;;;;;;5073811;27;51333;-61
2022/03/08 10:08:39;;;;;;;;;50.50;41.00;;;;;;;;5073491;28;51127;-62
2022/03/08 10:11:05;;;;;;;;;52.75;44.25;;;;;;;;5073482;28;51020;-62
2022/03/08 10:13:33;;;;;;;;;55.75;46.00;;;;;;;;5073756;28;50852;-62
2022/03/08 10:16:08;;;;;;;;;57.50;45.25;;;;;;;;5073810;28;50943;-62
2022/03/08 10:18:34;;;;;;;;;60.50;49.50;;;;;;;;5073055;28;51741;-62
2022/03/08 10:20:59;;;;;;;;;62.00;49.00;;;;;;;;5073054;27;50999;-62
2022/03/08 10:23:24;;;;;;;;;49.25;41.75;;;;;;;;5073212;27;51127;-62
2022/03/08 10:25:50;;;;;;;;;51.50;43.50;;;;;;;;5073122;28;50884;-61
2022/03/08 10:28:15;;;;;;;;;55.50;45.25;;;;;;;;5073168;28;50992;-62
2022/03/08 10:30:43;;;;;;;;;53.50;44.50;;;;;;;;5073304;28;50987;-62
2022/03/08 10:33:08;;;;;;;;;53.00;43.75;;;;;;;;5071648;28;51111;-62
2022/03/08 10:35:38;;;;;;;;;52.25;43.50;;;;;;;;5073121;28;51025;-62
2022/03/08 10:38:06;;;;;;;;;50.50;42.50;;;;;;;;5071184;28;53833;-62
2022/03/08 10:40:34;;;;;;;;;48.50;39.75;;;;;;;;5073158;28;51293;-63
2022/03/08 10:42:59;;;;;;;;;55.00;43.75;;;;;;;;5072791;28;51062;-62
2022/03/08 10:45:26;;;;;;;;;53.50;45.00;;;;;;;;5071052;28;51041;-61
2022/03/08 10:47:53;;;;;;;;;50.00;39.75;;;;;;;;5071997;28;51420;-62
2022/03/08 10:50:19;;;;;;;;;53.50;45.50;;;;;;;;5071905;28;50967;-62
2022/03/08 10:52:45;;;;;;;;;57.50;46.75;;;;;;;;5070613;28;50930;-62
2022/03/08 10:55:14;;;;;;;;;54.50;45.75;;;;;;;;5071193;28;50951;-62
2022/03/08 10:57:43;;;;;;;;;45.75;36.50;;;;;;;;5070238;28;52983;-62
2022/03/08 11:00:11;;;;;;;;;52.50;44.00;;;;;;;;5053932;28;50960;-66
2022/03/08 11:02:45;;;;;;;;;57.25;46.00;;;;;;;;5072203;28;51187;-63
2022/03/08 11:05:11;;;;;;;;;53.50;45.25;;;;;;;;5070482;28;51066;-62
2022/03/08 11:07:37;;;;;;;;;53.50;44.25;;;;;;;;5071541;28;52258;-62
2022/03/08 11:10:03;;;;;;;;;55.25;45.75;;;;;;;;5070540;28;51048;-63
2022/03/08 11:12:29;;;;;;;;;54.50;45.25;;;;;;;;5071948;28;50977;-63
2022/03/08 11:14:54;;;;;;;;;57.50;47.25;;;;;;;;5067271;27;54030;-62
2022/03/08 11:17:19;;;;;;;;;55.00;45.25;;;;;;;;5071549;27;50990;-62
2022/03/08 11:19:45;;;;;;;;;51.25;41.75;;;;;;;;5071491;28;51198;-62
2022/03/08 11:22:10;;;;;;;;;19.00;15.25;;;;;;;;5070771;28;51158;-62
2022/03/08 11:24:36;;;;;;;;;51.75;42.50;;;;;;;;5072885;28;51126;-62
2022/03/08 11:27:02;;;;;;;;;58.25;47.00;;;;;;;;5071912;28;52031;-62
2022/03/08 11:29:28;;;;;;;;;53.50;44.75;;;;;;;;5070779;28;50933;-62
2022/03/08 11:31:54;;;;;;;;;54.50;44.25;;;;;;;;5071913;28;51002;-62
2022/03/08 11:34:26;;;;;;;;;53.50;43.00;;;;;;;;5070538;28;50870;-62
2022/03/08 11:36:58;;;;;;;;;47.25;38.00;;;;;;;;5070270;28;52091;-62
2022/03/08 11:39:24;;;;;;;;;55.25;45.50;;;;;;;;5070367;28;51261;-62
2022/03/08 11:41:50;;;;;;;;;56.75;46.75;;;;;;;;5069607;28;51102;-62
2022/03/08 11:44:32;;;;;;;;;56.50;46.75;;;;;;;;5072498;28;50969;-62
2022/03/08 11:46:59;;;;;;;;;56.25;44.75;;;;;;;;5070418;28;53142;-62
2022/03/08 11:49:40;;;;;;;;;55.75;46.25;;;;;;;;5071412;28;50997;-62
2022/03/08 11:52:14;;;;;;;;;53.25;44.00;;;;;;;;5070408;28;51063;-62
2022/03/08 11:54:39;;;;;;;;;55.75;46.50;;;;;;;;5072080;28;51125;-62
2022/03/08 11:57:04;;;;;;;;;53.75;45.50;;;;;;;;5071401;28;51300;-62
2022/03/08 11:59:30;;;;;;;;;54.50;45.00;;;;;;;;5070321;28;50995;-62
2022/03/08 12:01:55;;;;;;;;;53.25;43.50;;;;;;;;5071579;28;50854;-62
2022/03/08 12:04:21;;;;;;;;;51.50;42.75;;;;;;;;5070291;28;50869;-63
2022/03/08 12:06:56;;;;;;;;;46.75;38.75;;;;;;;;5071705;28;51071;-60
2022/03/08 12:09:22;;;;;;;;;51.00;42.25;;;;;;;;5070214;27;51064;-62
2022/03/08 12:11:47;;;;;;;;;53.00;43.50;;;;;;;;5070078;28;51015;-61
2022/03/08 12:14:12;;;;;;;;;35.50;29.75;;;;;;;;5070820;28;51254;-62
2022/03/08 12:16:39;;;;;;;;;55.50;44.50;;;;;;;;5071632;28;52713;-62
2022/03/08 12:19:05;;;;;;;;;55.50;44.00;;;;;;;;5071782;28;51121;-62
2022/03/08 12:21:31;;;;;;;;;47.75;37.50;;;;;;;;5070633;28;51088;-62
2022/03/08 12:24:09;;;;;;;;;52.75;43.75;;;;;;;;5071535;28;50986;-62
2022/03/08 12:26:53;;;;;;;;;50.75;42.50;;;;;;;;5070909;28;51731;-62
2022/03/08 12:29:36;;;;;;;;;53.25;43.25;;;;;;;;5070924;28;51010;-63
2022/03/08 12:32:02;;;;;;;;;52.00;43.00;;;;;;;;5069480;28;51297;-62
2022/03/08 12:34:42;;;;;;;;;51.25;42.25;;;;;;;;5069759;28;51015;-62
2022/03/08 12:37:10;;;;;;;;;51.50;41.25;;;;;;;;5069556;28;52769;-62
2022/03/08 12:39:54;;;;;;;;;52.00;42.50;;;;;;;;5071129;28;51225;-61
2022/03/08 12:42:20;;;;;;;;;50.25;41.25;;;;;;;;5070259;28;50983;-62
2022/03/08 12:45:15;;;;;;;;;52.50;43.25;;;;;;;;5071064;28;51265;-63
2022/03/08 12:47:42;;;;;;;;;50.00;39.50;;;;;;;;5062059;28;51073;-62
2022/03/08 12:50:12;;;;;;;;;50.25;41.00;;;;;;;;5074728;28;51059;-62
2022/03/08 12:52:40;;;;;;;;;51.25;41.25;;;;;;;;5074682;28;50981;-62
2022/03/08 12:55:07;;;;;;;;;50.75;41.25;;;;;;;;5073263;28;51291;-62
2022/03/08 12:57:35;;;;;;;;;50.75;41.50;;;;;;;;5073835;28;52869;-60
2022/03/08 13:00:00;;;;;;;;;53.75;43.00;;;;;;;;5075319;28;51109;-62
2022/03/08 13:02:26;;;;;;;;;50.25;41.25;;;;;;;;5074225;28;51123;-61
2022/03/08 13:05:00;;;;;;;;;46.00;39.00;;;;;;;;5074021;28;51058;-61
2022/03/08 13:07:26;;;;;;;;;45.25;39.25;;;;;;;;5074759;28;50983;-62
2022/03/08 13:09:55;;;;;;;;;48.75;40.75;;;;;;;;5074394;27;51225;-63
2022/03/08 13:12:22;;;;;;;;;43.25;34.75;;;;;;;;5074494;28;51120;-63
2022/03/08 13:15:07;;;;;;;;;52.00;41.00;;;;;;;;5070206;27;50852;-62
2022/03/08 13:17:32;;;;;;;;;47.75;40.00;;;;;;;;5071358;27;54018;-62
2022/03/08 13:19:57;;;;;;;;;50.25;42.00;;;;;;;;5072182;27;51070;-61
2022/03/08 13:22:23;;;;;;;;;48.75;41.00;;;;;;;;5074402;27;51745;-62
2022/03/08 13:25:08;;;;;;;;;41.75;37.75;;;;;;;;5072977;27;51080;-62
2022/03/08 13:27:52;;;;;;;;;52.00;43.50;;;;;;;;5060745;28;50931;-61
2022/03/08 13:30:28;;;;;;;;;47.75;40.00;;;;;;;;5073171;28;50973;-64
2022/03/08 13:33:12;;;;;;;;;50.25;40.00;;;;;;;;5073556;28;50987;-62
2022/03/08 13:35:38;;;;;;;;;47.25;39.50;;;;;;;;5073553;28;51261;-62
2022/03/08 13:38:03;;;;;;;;;48.25;39.25;;;;;;;;5072889;28;51035;-61
2022/03/08 13:40:31;;;;;;;;;47.00;39.00;;;;;;;;5071941;27;50947;-61
2022/03/08 13:42:57;;;;;;;;;44.00;37.75;;;;;;;;5073002;28;51030;-61
2022/03/08 13:45:22;;;;;;;;;46.00;37.50;;;;;;;;5068194;28;51220;-62
2022/03/08 13:47:51;;;;;;;;;48.50;40.25;;;;;;;;5059544;27;51435;-63
2022/03/08 13:50:19;;;;;;;;;51.75;43.25;;;;;;;;5072579;27;51097;-63
2022/03/08 13:52:52;;;;;;;;;45.25;38.00;;;;;;;;5066731;27;51085;-63
2022/03/08 13:55:18;;;;;;;;;45.75;37.25;;;;;;;;5070420;27;51245;-63
2022/03/08 13:57:56;;;;;;;;;50.50;41.75;;;;;;;;5071081;28;51474;-62
2022/03/08 14:00:26;;;;;;;;;44.50;38.00;;;;;;;;5067645;27;51165;-62
2022/03/08 14:02:55;;;;;;;;;47.25;40.75;;;;;;;;5072365;27;51155;-62
2022/03/08 14:05:21;;;;;;;;;49.75;40.75;;;;;;;;5068330;27;51404;-63
2022/03/08 14:07:56;;;;;;;;;48.50;39.25;;;;;;;;5069650;27;51464;-61
2022/03/08 14:10:23;;;;;;;;;43.00;36.00;;;;;;;;5072621;27;51493;-62
2022/03/08 14:12:52;;;;;;;;;40.00;35.50;;;;;;;;5069054;27;51052;-61